Time;durP1;ratioP1;P1;durP2;ratioP2;P2;SDS_P1;SDS_P2;PMS_P1;PMS_P2;Temp;Humidity;BMP_temperature;BMP_pressure;BME280_temperature;BME280_humidity;BME280_pressure;Samples;Min_cycle;Max_cycle;Signal;HPM_P1;HPM_P2
2022/03/31 00:00:48;;;;;;;0.28;0.28;;;6.50;99.90;;;;;;4972577;28;20081;-61
2022/03/31 00:03:17;;;;;;;1.25;1.17;;;6.40;99.90;;;;;;4972389;28;20487;-61
2022/03/31 00:05:47;;;;;;;1.40;0.77;;;6.30;99.90;;;;;;4956303;28;20475;-61
2022/03/31 00:08:16;;;;;;;1.27;1.17;;;6.30;99.90;;;;;;4971848;28;20023;-62
2022/03/31 00:10:49;;;;;;;1.38;1.27;;;6.30;99.90;;;;;;4972209;28;20446;-61
2022/03/31 00:13:21;;;;;;;0.30;0.30;;;6.20;99.90;;;;;;4972668;28;20035;-61
2022/03/31 00:15:47;;;;;;;1.10;1.10;;;6.10;99.90;;;;;;4972657;28;20070;-61
2022/03/31 00:18:16;;;;;;;1.02;1.00;;;6.00;99.90;;;;;;4973464;28;20459;-61
2022/03/31 00:20:42;;;;;;;1.70;1.08;;;6.00;99.90;;;;;;4973177;28;20538;-61
2022/03/31 00:23:08;;;;;;;5.10;1.15;;;5.60;99.90;;;;;;4972025;28;20030;-61
2022/03/31 00:25:35;;;;;;;0.60;0.60;;;5.60;99.90;;;;;;4973300;28;20038;-61
2022/03/31 00:28:03;;;;;;;1.65;1.20;;;5.60;99.90;;;;;;4973176;28;20022;-61
2022/03/31 00:30:30;;;;;;;1.67;1.42;;;5.60;99.90;;;;;;4971539;28;20027;-61
2022/03/31 00:32:57;;;;;;;3.67;2.28;;;5.60;99.90;;;;;;4971877;28;20030;-61
2022/03/31 00:35:24;;;;;;;0.17;0.17;;;5.60;99.90;;;;;;4972171;28;20122;-62
2022/03/31 00:37:50;;;;;;;0.20;0.20;;;5.70;99.90;;;;;;4973022;28;20034;-62
2022/03/31 00:40:19;;;;;;;1.40;1.35;;;5.70;99.90;;;;;;4972207;28;20047;-62
2022/03/31 00:42:51;;;;;;;4.20;1.00;;;5.70;99.90;;;;;;4972911;28;20031;-62
2022/03/31 00:45:34;;;;;;;0.32;0.32;;;5.70;99.90;;;;;;4973026;28;20042;-62
2022/03/31 00:48:01;;;;;;;0.30;0.30;;;5.70;99.90;;;;;;4972413;28;20027;-62
2022/03/31 00:50:28;;;;;;;3.60;1.15;;;5.70;99.90;;;;;;4971450;28;20122;-62
2022/03/31 00:52:54;;;;;;;0.20;0.20;;;5.70;99.90;;;;;;4972685;28;20497;-62
2022/03/31 00:55:21;;;;;;;0.32;0.32;;;5.70;99.90;;;;;;4972952;28;20086;-62
2022/03/31 00:57:55;;;;;;;0.47;0.47;;;5.70;99.90;;;;;;4993368;23;20060;-62
2022/03/31 01:00:21;;;;;;;0.32;0.32;;;5.70;99.90;;;;;;4978510;28;20134;-62
2022/03/31 01:02:47;;;;;;;1.00;1.00;;;5.70;99.90;;;;;;4972739;28;20113;-62
2022/03/31 01:05:16;;;;;;;0.32;0.32;;;5.60;99.90;;;;;;4980078;28;20566;-62
2022/03/31 01:07:43;;;;;;;0.52;0.52;;;5.50;99.90;;;;;;4982350;28;20025;-62
2022/03/31 01:10:11;;;;;;;0.35;0.35;;;5.40;99.90;;;;;;4977483;28;20101;-62
2022/03/31 01:12:37;;;;;;;1.27;0.93;;;5.40;99.90;;;;;;4989959;28;20482;-62
2022/03/31 01:15:14;;;;;;;0.20;0.20;;;5.40;99.90;;;;;;4985869;28;20034;-62
2022/03/31 01:17:43;;;;;;;0.38;0.38;;;5.40;99.90;;;;;;4971848;28;20034;-62
2022/03/31 01:20:14;;;;;;;1.55;1.13;;;5.40;99.90;;;;;;4982767;28;20022;-62
2022/03/31 01:22:41;;;;;;;;;;;5.40;99.90;;;;;;4975624;28;20122;-62
2022/03/31 01:25:09;;;;;;;0.20;0.20;;;5.50;99.90;;;;;;4971747;28;19968;-62
2022/03/31 01:27:38;;;;;;;7.50;1.25;;;5.40;99.90;;;;;;4973914;28;20494;-62
2022/03/31 01:30:10;;;;;;;1.55;0.80;;;5.50;99.90;;;;;;4990573;28;20042;-62
2022/03/31 01:32:36;;;;;;;1.35;1.20;;;5.50;99.90;;;;;;4991474;28;20026;-62
2022/03/31 01:35:06;;;;;;;0.10;0.10;;;5.40;99.90;;;;;;4990118;28;20026;-62
2022/03/31 01:37:32;;;;;;;0.40;0.40;;;5.50;99.90;;;;;;4990849;28;20030;-62
2022/03/31 01:39:59;;;;;;;0.10;0.10;;;5.40;99.90;;;;;;4989924;28;20027;-62
2022/03/31 01:42:26;;;;;;;0.47;0.47;;;5.40;99.90;;;;;;4972001;28;20034;-62
2022/03/31 01:44:52;;;;;;;0.40;0.40;;;5.40;99.90;;;;;;4970646;28;20034;-62
2022/03/31 01:47:19;;;;;;;0.10;0.10;;;5.20;99.90;;;;;;4971634;28;20475;-62
2022/03/31 01:49:45;;;;;;;7.95;1.30;;;5.10;99.90;;;;;;4971021;28;20060;-62
2022/03/31 01:52:12;;;;;;;0.45;0.45;;;5.00;99.90;;;;;;4971824;28;20033;-62
2022/03/31 01:54:37;;;;;;;0.50;0.50;;;5.10;99.90;;;;;;4971493;28;20434;-62
2022/03/31 01:57:04;;;;;;;0.57;0.57;;;5.00;99.90;;;;;;4971187;28;20031;-62
2022/03/31 01:59:38;;;;;;;0.73;0.73;;;5.00;99.90;;;;;;4970578;28;20038;-62
2022/03/31 02:02:05;;;;;;;2.67;1.48;;;4.90;99.90;;;;;;4971515;28;20667;-61
2022/03/31 02:04:31;;;;;;;0.30;0.30;;;4.90;99.90;;;;;;4971353;28;20407;-61
2022/03/31 02:06:57;;;;;;;2.17;0.60;;;4.90;99.90;;;;;;4971154;28;20031;-62
2022/03/31 02:09:23;;;;;;;0.40;0.40;;;4.80;99.90;;;;;;4971972;28;20059;-61
2022/03/31 02:11:49;;;;;;;1.90;1.00;;;4.80;99.90;;;;;;4971774;28;20030;-61
2022/03/31 02:14:15;;;;;;;0.90;0.90;;;4.80;99.90;;;;;;4970533;28;20035;-62
2022/03/31 02:16:41;;;;;;;0.25;0.25;;;4.90;99.90;;;;;;4990492;28;20152;-62
2022/03/31 02:19:07;;;;;;;2.17;1.17;;;5.00;99.90;;;;;;4990783;28;20030;-62
2022/03/31 02:21:33;;;;;;;0.25;0.25;;;5.10;99.90;;;;;;4990690;28;20046;-61
2022/03/31 02:23:59;;;;;;;0.10;0.10;;;5.20;99.90;;;;;;4990968;28;20042;-62
2022/03/31 02:26:25;;;;;;;0.32;0.32;;;5.30;99.90;;;;;;4990415;28;20034;-61
2022/03/31 02:28:50;;;;;;;0.00;0.00;;;5.40;99.90;;;;;;4990984;28;20498;-62
2022/03/31 02:31:17;;;;;;;0.45;0.45;;;5.40;99.90;;;;;;4990986;28;20037;-62
2022/03/31 02:33:43;;;;;;;2.03;1.23;;;5.50;99.90;;;;;;4989682;28;20026;-62
2022/03/31 02:36:09;;;;;;;0.32;0.32;;;5.50;99.90;;;;;;4990607;28;20438;-61
2022/03/31 02:38:36;;;;;;;1.08;1.02;;;5.40;99.90;;;;;;4990655;28;20514;-62
2022/03/31 02:41:04;;;;;;;0.63;0.63;;;5.40;99.90;;;;;;4989617;28;20030;-61
2022/03/31 02:43:31;;;;;;;1.85;1.58;;;5.30;99.90;;;;;;4989389;28;20070;-62
2022/03/31 02:45:59;;;;;;;3.10;1.55;;;5.30;99.90;;;;;;4989443;28;20030;-62
2022/03/31 02:48:25;;;;;;;1.98;1.88;;;5.20;99.90;;;;;;4990267;28;20105;-62
2022/03/31 02:50:51;;;;;;;0.28;0.28;;;5.20;99.90;;;;;;4973243;28;20075;-62
2022/03/31 02:56:03;;;;;;;0.10;0.10;;;5.30;99.90;;;;;;4994448;28;20060;-62
2022/03/31 02:58:29;;;;;;;0.15;0.15;;;5.30;99.90;;;;;;4992698;28;20112;-62
2022/03/31 03:00:55;;;;;;;0.40;0.40;;;5.30;99.90;;;;;;4992930;28;20305;-62
2022/03/31 03:03:21;;;;;;;0.30;0.30;;;5.40;99.90;;;;;;4986092;28;20657;-61
2022/03/31 03:05:47;;;;;;;0.50;0.50;;;5.40;99.90;;;;;;4983729;28;20035;-62
2022/03/31 03:08:14;;;;;;;0.00;0.00;;;5.40;99.90;;;;;;4981778;28;20029;-62
2022/03/31 03:10:40;;;;;;;0.25;0.25;;;5.40;99.90;;;;;;4986254;28;20515;-62
2022/03/31 03:13:07;;;;;;;0.28;0.28;;;5.40;99.90;;;;;;4989866;28;20485;-62
2022/03/31 03:15:33;;;;;;;4.65;1.88;;;5.30;99.90;;;;;;4984087;28;20030;-62
2022/03/31 03:17:59;;;;;;;0.47;0.47;;;5.40;99.90;;;;;;4993410;28;20033;-62
2022/03/31 03:20:25;;;;;;;1.65;0.65;;;5.50;99.90;;;;;;4994214;28;20061;-62
2022/03/31 03:22:53;;;;;;;0.30;0.30;;;5.50;99.90;;;;;;4993589;28;20421;-62
2022/03/31 03:25:22;;;;;;;0.65;0.65;;;5.50;99.90;;;;;;4980839;28;20128;-62
2022/03/31 03:27:49;;;;;;;1.55;1.45;;;5.40;99.90;;;;;;4972642;28;20034;-62
2022/03/31 03:30:20;;;;;;;1.35;1.25;;;5.50;99.90;;;;;;4972823;28;20022;-62
2022/03/31 03:32:47;;;;;;;1.27;1.27;;;5.50;99.90;;;;;;4972951;28;20035;-62
2022/03/31 03:35:14;;;;;;;6.65;0.80;;;5.60;99.90;;;;;;4974353;28;20215;-62
2022/03/31 03:37:41;;;;;;;0.10;0.10;;;5.60;99.90;;;;;;4972724;28;20035;-62
2022/03/31 03:40:11;;;;;;;3.30;2.05;;;5.60;99.90;;;;;;4972937;28;20475;-61
2022/03/31 03:42:39;;;;;;;0.35;0.35;;;5.50;99.90;;;;;;4987506;28;20035;-61
2022/03/31 03:45:08;;;;;;;0.20;0.20;;;5.60;99.90;;;;;;4992098;28;20086;-62
2022/03/31 03:47:34;;;;;;;0.70;0.70;;;5.50;99.90;;;;;;4991936;28;20105;-62
2022/03/31 03:50:00;;;;;;;0.30;0.30;;;5.60;99.90;;;;;;4992919;28;20109;-62
2022/03/31 03:52:25;;;;;;;0.25;0.25;;;5.60;99.90;;;;;;4992049;28;20037;-62
2022/03/31 03:54:51;;;;;;;0.85;0.85;;;5.60;99.90;;;;;;4991913;28;20105;-62
2022/03/31 03:57:17;;;;;;;0.20;0.20;;;5.60;99.90;;;;;;4992686;28;20421;-61
2022/03/31 03:59:43;;;;;;;0.13;0.13;;;5.50;99.90;;;;;;4975917;28;20478;-62
2022/03/31 04:02:09;;;;;;;4.15;2.05;;;5.50;99.90;;;;;;4992142;28;20482;-62
2022/03/31 04:04:35;;;;;;;0.20;0.20;;;5.40;99.90;;;;;;4992214;28;20049;-61
2022/03/31 04:07:01;;;;;;;0.90;0.90;;;5.40;99.90;;;;;;4992567;28;20493;-61
2022/03/31 04:09:27;;;;;;;0.05;0.05;;;5.40;99.90;;;;;;4992238;28;20018;-62
2022/03/31 04:11:53;;;;;;;0.55;0.55;;;5.40;99.90;;;;;;4992915;28;20089;-62
2022/03/31 04:14:21;;;;;;;0.30;0.30;;;5.40;99.90;;;;;;4992122;28;20669;-62
2022/03/31 04:16:47;;;;;;;0.20;0.20;;;5.30;99.90;;;;;;4984652;28;20035;-60
2022/03/31 04:19:13;;;;;;;0.50;0.40;;;5.30;99.90;;;;;;4933528;28;20044;-60
2022/03/31 04:21:39;;;;;;;1.65;1.35;;;5.30;99.90;;;;;;4973536;28;20085;-61
2022/03/31 04:24:06;;;;;;;0.30;0.30;;;5.30;99.90;;;;;;4972028;28;20097;-62
2022/03/31 04:26:32;;;;;;;0.80;0.80;;;5.30;99.90;;;;;;4977687;28;20478;-62
2022/03/31 04:28:58;;;;;;;6.43;1.80;;;5.30;99.90;;;;;;4974627;28;20022;-62
2022/03/31 04:31:24;;;;;;;0.73;0.57;;;5.30;99.90;;;;;;5004213;28;20444;-62
2022/03/31 04:33:50;;;;;;;0.17;0.17;;;5.40;99.90;;;;;;4994676;28;20030;-61
2022/03/31 04:36:16;;;;;;;0.10;0.10;;;5.40;99.90;;;;;;4991738;28;20034;-61
2022/03/31 04:38:42;;;;;;;0.10;0.10;;;5.50;99.90;;;;;;4991160;28;20484;-61
2022/03/31 04:41:08;;;;;;;0.30;0.30;;;5.30;99.90;;;;;;4991947;28;20041;-60
2022/03/31 04:43:34;;;;;;;1.42;1.33;;;5.40;99.90;;;;;;4990801;28;20041;-60
2022/03/31 04:46:00;;;;;;;2.22;2.10;;;5.30;99.90;;;;;;4992393;28;20026;-59
2022/03/31 04:48:25;;;;;;;0.95;0.95;;;5.40;99.90;;;;;;4990426;28;20030;-61
2022/03/31 04:50:51;;;;;;;0.50;0.50;;;5.30;99.90;;;;;;4991994;28;20031;-61
2022/03/31 04:53:17;;;;;;;0.10;0.10;;;5.60;99.90;;;;;;4992089;28;20080;-62
2022/03/31 04:55:43;;;;;;;0.17;0.17;;;5.50;99.90;;;;;;4991919;28;20038;-62
2022/03/31 04:58:09;;;;;;;0.20;0.20;;;5.50;99.90;;;;;;4990048;28;20131;-62
2022/03/31 05:00:35;;;;;;;0.60;0.60;;;5.40;99.90;;;;;;4990462;28;20114;-61
2022/03/31 05:03:01;;;;;;;1.55;0.40;;;5.30;99.90;;;;;;4990136;28;20214;-63
2022/03/31 05:05:27;;;;;;;0.20;0.20;;;5.20;99.90;;;;;;4968516;28;20801;-61
2022/03/31 05:07:54;;;;;;;0.50;0.50;;;5.10;99.90;;;;;;5002813;28;20109;-62
2022/03/31 05:10:20;;;;;;;2.08;0.75;;;5.10;99.90;;;;;;4991616;28;20083;-62
2022/03/31 05:12:46;;;;;;;1.20;1.20;;;5.20;99.90;;;;;;4990669;28;20062;-62
2022/03/31 05:15:11;;;;;;;3.22;3.03;;;5.20;99.90;;;;;;4984947;28;20035;-61
2022/03/31 05:17:38;;;;;;;3.03;1.85;;;5.10;99.90;;;;;;4991311;28;20574;-61
2022/03/31 05:20:10;;;;;;;0.82;0.82;;;5.10;99.90;;;;;;4991559;28;20049;-62
2022/03/31 05:22:38;;;;;;;0.55;0.45;;;5.00;99.90;;;;;;4988210;28;20034;-70
2022/03/31 05:25:09;;;;;;;0.98;0.65;;;5.10;99.90;;;;;;4994941;28;20486;-61
2022/03/31 05:27:43;;;;;;;0.25;0.25;;;5.10;99.90;;;;;;5007970;28;20034;-61
2022/03/31 05:30:15;;;;;;;0.70;0.70;;;5.20;99.90;;;;;;5000325;28;20064;-61
2022/03/31 05:32:41;;;;;;;0.63;0.63;;;5.20;99.90;;;;;;4997079;28;20126;-61
2022/03/31 05:35:09;;;;;;;0.30;0.30;;;5.20;99.90;;;;;;4991068;28;20037;-61
2022/03/31 05:37:35;;;;;;;0.38;0.38;;;5.20;99.90;;;;;;4998534;28;20436;-62
2022/03/31 05:40:04;;;;;;;0.30;0.30;;;5.30;99.90;;;;;;4974723;28;20034;-61
2022/03/31 05:42:32;;;;;;;0.73;0.73;;;5.30;99.90;;;;;;4981907;28;20026;-61
2022/03/31 05:45:04;;;;;;;0.75;0.75;;;5.30;99.90;;;;;;4991137;28;20141;-61
2022/03/31 05:47:32;;;;;;;;;;;5.40;99.90;;;;;;4989749;28;20026;-61
2022/03/31 05:49:58;;;;;;;0.40;0.40;;;5.40;99.90;;;;;;4989658;28;19913;-61
2022/03/31 05:52:24;;;;;;;0.55;0.55;;;5.40;99.90;;;;;;4990774;28;20517;-61
2022/03/31 05:54:50;;;;;;;0.70;0.70;;;5.40;99.90;;;;;;4991058;28;20022;-61
2022/03/31 05:57:16;;;;;;;0.85;0.85;;;5.50;99.90;;;;;;4990033;28;20022;-61
2022/03/31 05:59:43;;;;;;;0.10;0.10;;;5.40;99.90;;;;;;4989920;28;20031;-61
2022/03/31 06:02:11;;;;;;;0.43;0.43;;;5.20;99.90;;;;;;4990536;28;20019;-61
2022/03/31 06:04:40;;;;;;;0.43;0.43;;;5.30;99.90;;;;;;4989693;28;20048;-61
2022/03/31 06:07:08;;;;;;;0.10;0.10;;;5.30;99.90;;;;;;4990720;28;20031;-61
2022/03/31 06:09:34;;;;;;;1.75;1.58;;;5.40;99.90;;;;;;4989728;28;20022;-61
2022/03/31 06:12:00;;;;;;;3.03;1.67;;;5.40;99.90;;;;;;4989503;28;20441;-61
2022/03/31 06:14:27;;;;;;;0.60;0.57;;;5.40;99.90;;;;;;4989676;28;20038;-60
2022/03/31 06:16:52;;;;;;;0.10;0.10;;;5.40;99.90;;;;;;4989163;28;20026;-61
2022/03/31 06:19:18;;;;;;;0.20;0.20;;;5.50;99.90;;;;;;4989341;28;20038;-61
2022/03/31 06:21:44;;;;;;;0.45;0.45;;;5.50;99.90;;;;;;4990712;28;20482;-61
2022/03/31 06:24:10;;;;;;;0.38;0.38;;;5.50;99.90;;;;;;4989396;28;20088;-61
2022/03/31 06:26:36;;;;;;;0.75;0.75;;;5.50;99.90;;;;;;4975383;28;20033;-62
2022/03/31 06:29:06;;;;;;;0.10;0.10;;;5.60;99.90;;;;;;4976944;28;20063;-61
2022/03/31 06:31:35;;;;;;;0.65;0.65;;;5.60;99.90;;;;;;4973899;28;20062;-61
2022/03/31 06:34:01;;;;;;;0.82;0.82;;;5.80;99.90;;;;;;4975246;28;20375;-61
2022/03/31 06:36:29;;;;;;;0.32;0.32;;;5.90;99.90;;;;;;4974718;28;20037;-61
2022/03/31 06:38:55;;;;;;;0.08;0.08;;;5.90;99.90;;;;;;4992144;28;20752;-61
2022/03/31 06:41:20;;;;;;;0.93;0.93;;;5.90;99.90;;;;;;4992934;28;20049;-61
2022/03/31 06:43:48;;;;;;;0.65;0.65;;;6.00;99.90;;;;;;4977088;28;20034;-61
2022/03/31 06:46:15;;;;;;;0.35;0.35;;;6.00;99.90;;;;;;4993755;28;20367;-61
2022/03/31 06:48:46;;;;;;;0.20;0.20;;;6.10;99.90;;;;;;4993164;28;20485;-61
2022/03/31 06:51:13;;;;;;;0.32;0.32;;;6.20;99.90;;;;;;4991880;28;20037;-61
2022/03/31 06:53:41;;;;;;;0.20;0.20;;;6.20;99.90;;;;;;4987711;28;20039;-61
2022/03/31 06:56:09;;;;;;;1.33;1.25;;;6.30;99.90;;;;;;5003817;28;20030;-59
2022/03/31 06:58:36;;;;;;;0.65;0.65;;;6.10;99.90;;;;;;5018785;23;20042;-60
2022/03/31 07:01:05;;;;;;;3.40;0.98;;;5.90;99.90;;;;;;4994225;28;20030;-60
2022/03/31 07:03:32;;;;;;;0.17;0.17;;;5.90;99.90;;;;;;4993812;28;20030;-61
2022/03/31 07:05:57;;;;;;;0.10;0.10;;;5.90;99.90;;;;;;5009330;28;20030;-61
2022/03/31 07:08:23;;;;;;;0.68;0.68;;;6.10;99.90;;;;;;4992512;28;20487;-60
2022/03/31 07:10:49;;;;;;;0.28;0.28;;;6.20;99.90;;;;;;4992832;28;20026;-61
2022/03/31 07:13:15;;;;;;;0.85;0.40;;;6.30;99.90;;;;;;4993825;28;20080;-60
2022/03/31 07:15:42;;;;;;;0.32;0.32;;;6.40;99.90;;;;;;4992994;28;20505;-60
2022/03/31 07:18:07;;;;;;;0.20;0.20;;;6.40;99.90;;;;;;4993807;28;20512;-60
2022/03/31 07:20:36;;;;;;;1.48;0.90;;;6.60;99.90;;;;;;4993597;28;20030;-60
2022/03/31 07:23:02;;;;;;;0.60;0.40;;;6.70;99.90;;;;;;4993800;28;20035;-60
2022/03/31 07:25:29;;;;;;;1.92;1.83;;;6.80;99.90;;;;;;4992760;28;20038;-60
2022/03/31 07:27:55;;;;;;;1.02;1.02;;;7.00;99.90;;;;;;4992599;28;20089;-60
2022/03/31 07:30:22;;;;;;;1.13;1.10;;;6.80;99.90;;;;;;4991325;28;20030;-60
2022/03/31 07:33:00;;;;;;;0.38;0.38;;;6.80;99.90;;;;;;4992438;28;20031;-60
2022/03/31 07:35:33;;;;;;;0.55;0.55;;;6.80;99.90;;;;;;4992613;28;20057;-60
2022/03/31 07:38:03;;;;;;;0.50;0.50;;;7.00;99.90;;;;;;4989773;28;20049;-60
2022/03/31 07:40:29;;;;;;;0.75;0.75;;;7.00;99.90;;;;;;4992628;28;20509;-60
2022/03/31 07:42:56;;;;;;;0.17;0.17;;;7.10;99.90;;;;;;4992171;28;20026;-60
2022/03/31 07:45:23;;;;;;;0.50;0.50;;;6.90;99.90;;;;;;4993704;28;20019;-60
2022/03/31 07:47:50;;;;;;;1.90;1.00;;;7.00;99.90;;;;;;4992882;28;20062;-60
2022/03/31 07:50:18;;;;;;;0.00;0.00;;;7.10;99.90;;;;;;4992221;28;20042;-60
2022/03/31 07:52:45;;;;;;;2.13;1.17;;;7.30;99.90;;;;;;4992817;28;20110;-60
2022/03/31 07:55:13;;;;;;;0.17;0.17;;;7.30;99.90;;;;;;4991766;28;20549;-60
2022/03/31 07:57:39;;;;;;;0.20;0.20;;;7.20;99.90;;;;;;5023613;28;20030;-60
2022/03/31 08:00:08;;;;;;;0.20;0.20;;;7.40;99.90;;;;;;4991712;28;20117;-60
2022/03/31 08:02:34;;;;;;;0.47;0.47;;;7.60;99.90;;;;;;4993265;28;20109;-60
2022/03/31 08:04:59;;;;;;;0.00;0.00;;;7.60;99.90;;;;;;4993123;28;20150;-60
2022/03/31 08:07:25;;;;;;;0.05;0.05;;;7.50;99.90;;;;;;4992619;28;20042;-60
2022/03/31 08:09:51;;;;;;;0.05;0.05;;;7.50;99.90;;;;;;4993221;28;20022;-60
2022/03/31 08:12:17;;;;;;;0.00;0.00;;;7.70;99.90;;;;;;4991570;28;20030;-59
2022/03/31 08:14:43;;;;;;;0.75;0.75;;;7.80;99.90;;;;;;4992755;28;20085;-60
2022/03/31 08:17:09;;;;;;;0.40;0.40;;;7.60;99.90;;;;;;4992472;28;20100;-60
2022/03/31 08:19:35;;;;;;;0.60;0.38;;;7.80;99.90;;;;;;4992510;28;20486;-60
2022/03/31 08:22:02;;;;;;;2.10;1.45;;;7.80;99.90;;;;;;4991468;28;20073;-60
2022/03/31 08:24:31;;;;;;;1.58;1.48;;;7.80;99.90;;;;;;4991573;28;20030;-59
2022/03/31 08:26:58;;;;;;;0.65;0.55;;;7.60;99.90;;;;;;5023707;28;20386;-59
2022/03/31 08:29:27;;;;;;;1.85;1.75;;;7.70;99.90;;;;;;5023869;28;20066;-59
2022/03/31 08:31:55;;;;;;;0.10;0.10;;;7.50;99.90;;;;;;4992312;28;20022;-60
2022/03/31 08:34:21;;;;;;;1.77;1.05;;;7.70;99.90;;;;;;4992279;28;20030;-60
2022/03/31 08:36:47;;;;;;;0.20;0.20;;;7.60;99.90;;;;;;4991913;28;20042;-60
2022/03/31 08:39:12;;;;;;;0.00;0.00;;;7.70;99.90;;;;;;4992392;28;20390;-60
2022/03/31 08:41:38;;;;;;;0.00;0.00;;;7.40;99.90;;;;;;4990920;28;20121;-60
2022/03/31 08:44:05;;;;;;;1.05;0.47;;;7.40;99.90;;;;;;4992046;28;20030;-60
2022/03/31 08:46:34;;;;;;;0.10;0.10;;;7.40;99.90;;;;;;4991730;28;20030;-61
2022/03/31 08:49:01;;;;;;;0.10;0.10;;;7.50;99.90;;;;;;4992121;28;20097;-61
2022/03/31 08:51:28;;;;;;;1.00;1.00;;;7.60;99.90;;;;;;5023501;28;20061;-61
2022/03/31 08:53:55;;;;;;;0.57;0.55;;;7.70;99.90;;;;;;4992031;28;20040;-61
2022/03/31 08:56:21;;;;;;;0.85;0.85;;;7.80;99.90;;;;;;4992001;28;20065;-62
2022/03/31 08:58:48;;;;;;;0.10;0.10;;;7.70;99.90;;;;;;4991647;28;20486;-60
2022/03/31 09:01:15;;;;;;;2.38;0.75;;;7.70;99.90;;;;;;5023657;28;20080;-61
2022/03/31 09:03:41;;;;;;;0.22;0.22;;;7.80;99.90;;;;;;4991476;28;20030;-60
2022/03/31 09:06:10;;;;;;;0.20;0.20;;;8.00;99.90;;;;;;4991884;28;20034;-61
2022/03/31 09:08:36;;;;;;;0.90;0.45;;;8.20;99.90;;;;;;4991555;28;20030;-60
2022/03/31 09:11:03;;;;;;;1.02;0.80;;;8.20;99.90;;;;;;4991994;28;20474;-60
2022/03/31 09:13:38;;;;;;;0.38;0.38;;;8.30;99.90;;;;;;4991988;28;20173;-61
2022/03/31 09:16:11;;;;;;;0.65;0.65;;;8.50;99.90;;;;;;5022328;28;20030;-61
2022/03/31 09:18:40;;;;;;;0.20;0.20;;;8.40;99.90;;;;;;4991776;28;20034;-61
2022/03/31 09:21:10;;;;;;;0.85;0.85;;;8.50;99.90;;;;;;4974307;28;20041;-61
2022/03/31 09:23:49;;;;;;;1.88;1.70;;;8.40;99.90;;;;;;4991458;28;20030;-61
2022/03/31 09:26:17;;;;;;;0.00;0.00;;;8.60;99.90;;;;;;4991271;28;20026;-60
2022/03/31 09:28:45;;;;;;;0.00;0.00;;;8.50;99.90;;;;;;4991324;28;20050;-61
2022/03/31 09:31:13;;;;;;;0.38;0.38;;;8.70;99.90;;;;;;4991600;28;20035;-60
2022/03/31 09:33:48;;;;;;;0.25;0.25;;;8.80;99.90;;;;;;5022777;28;20089;-60
2022/03/31 09:36:21;;;;;;;2.00;1.73;;;8.90;99.90;;;;;;4991285;28;20027;-62
2022/03/31 09:38:58;;;;;;;0.13;0.13;;;8.50;99.90;;;;;;4990268;28;20482;-61
2022/03/31 09:41:36;;;;;;;1.90;1.63;;;8.40;99.90;;;;;;4990148;28;20042;-60
2022/03/31 09:44:12;;;;;;;0.50;0.50;;;7.70;99.90;;;;;;4974512;28;20153;-61
2022/03/31 09:46:40;;;;;;;0.50;0.50;;;8.10;99.90;;;;;;4973950;28;20026;-61
2022/03/31 09:49:26;;;;;;;0.35;0.35;;;8.40;99.90;;;;;;4991076;28;20070;-60
2022/03/31 09:52:03;;;;;;;0.45;0.45;;;8.30;99.90;;;;;;4991460;28;20390;-60
2022/03/31 09:54:32;;;;;;;1.55;1.05;;;8.30;99.90;;;;;;4989885;28;20048;-60
2022/03/31 09:57:02;;;;;;;2.08;0.75;;;8.40;99.90;;;;;;4990796;28;20042;-60
2022/03/31 09:59:34;;;;;;;1.27;0.98;;;8.50;99.90;;;;;;5022311;28;20114;-61
2022/03/31 10:02:02;;;;;;;0.75;0.75;;;8.30;99.90;;;;;;4990345;28;20084;-61
2022/03/31 10:04:28;;;;;;;0.10;0.10;;;8.10;99.90;;;;;;4990811;28;20032;-60
2022/03/31 10:06:55;;;;;;;0.10;0.10;;;8.30;99.90;;;;;;4990948;28;20057;-61
2022/03/31 10:09:22;;;;;;;2.78;0.70;;;8.30;99.90;;;;;;4991026;28;20031;-61
2022/03/31 10:11:54;;;;;;;0.10;0.10;;;8.40;99.90;;;;;;5022178;28;20098;-61
2022/03/31 10:15:14;;;;;;;0.20;0.20;;;8.60;99.90;;;;;;5022363;28;20046;-61
2022/03/31 10:17:43;;;;;;;0.28;0.17;;;8.90;99.90;;;;;;4990777;28;20042;-61
2022/03/31 10:20:14;;;;;;;0.38;0.20;;;8.90;99.90;;;;;;4989828;28;20065;-61
2022/03/31 10:25:37;;;;;;;1.52;1.42;;;8.70;99.90;;;;;;4990004;28;19918;-62
2022/03/31 10:28:11;;;;;;;0.25;0.25;;;8.90;99.90;;;;;;5021643;28;20074;-61
2022/03/31 10:30:38;;;;;;;1.45;1.35;;;9.10;99.90;;;;;;4990707;28;20027;-61
2022/03/31 10:33:08;;;;;;;0.00;0.00;;;9.20;99.90;;;;;;4990387;28;20570;-63
2022/03/31 10:35:35;;;;;;;1.00;0.90;;;8.70;99.90;;;;;;5021321;28;20109;-62
2022/03/31 10:38:33;;;;;;;0.10;0.10;;;9.10;99.90;;;;;;4990461;28;20043;-62
2022/03/31 10:41:08;;;;;;;0.63;0.63;;;9.40;99.90;;;;;;4974365;28;20050;-62
2022/03/31 10:43:45;;;;;;;0.82;0.82;;;9.90;99.90;;;;;;4989165;28;20031;-61
2022/03/31 10:46:19;;;;;;;0.93;0.93;;;10.00;99.90;;;;;;4990500;28;20077;-61
2022/03/31 10:48:54;;;;;;;0.10;0.10;;;9.70;99.90;;;;;;4989728;28;20027;-62
2022/03/31 10:51:36;;;;;;;0.95;0.95;;;10.20;99.90;;;;;;4989602;28;20043;-61
2022/03/31 10:54:03;;;;;;;1.90;0.75;;;9.70;99.90;;;;;;4990017;28;20456;-60
2022/03/31 10:56:32;;;;;;;0.13;0.10;;;9.50;99.90;;;;;;4989690;28;20045;-61
2022/03/31 10:59:01;;;;;;;0.95;0.80;;;9.30;99.90;;;;;;4990611;28;20037;-61
2022/03/31 11:01:38;;;;;;;6.07;0.93;;;9.50;99.90;;;;;;4990123;28;20041;-61
2022/03/31 11:04:11;;;;;;;1.05;0.93;;;9.80;99.90;;;;;;4990415;28;20035;-61
2022/03/31 11:06:52;;;;;;;1.05;0.93;;;10.00;99.90;;;;;;4989752;28;20022;-61
2022/03/31 11:09:31;;;;;;;2.75;1.42;;;9.80;99.90;;;;;;5022026;28;20018;-61
2022/03/31 11:11:59;;;;;;;0.03;0.03;;;9.90;99.90;;;;;;4990284;28;20026;-61
2022/03/31 11:14:26;;;;;;;0.30;0.22;;;9.50;99.90;;;;;;5024169;28;20165;-61
2022/03/31 11:16:53;;;;;;;0.60;0.60;;;9.90;99.90;;;;;;5024601;28;20032;-61
2022/03/31 11:19:20;;;;;;;1.17;0.85;;;10.20;99.90;;;;;;4993964;28;20054;-61
2022/03/31 11:21:47;;;;;;;0.65;0.65;;;10.10;99.90;;;;;;4992585;28;20026;-61
2022/03/31 11:24:14;;;;;;;0.60;0.40;;;9.60;99.90;;;;;;4993810;28;20036;-61
2022/03/31 11:26:44;;;;;;;0.25;0.25;;;9.90;99.90;;;;;;5024902;28;20843;-62
2022/03/31 11:29:21;;;;;;;0.63;0.63;;;10.00;99.90;;;;;;4993829;28;20033;-61
2022/03/31 11:31:53;;;;;;;2.08;1.02;;;10.30;99.90;;;;;;4992606;28;20038;-61
2022/03/31 11:34:23;;;;;;;0.60;0.52;;;10.10;99.90;;;;;;5024845;28;20041;-62
2022/03/31 11:36:54;;;;;;;0.40;0.40;;;10.20;99.90;;;;;;5024306;28;20089;-61
2022/03/31 11:39:30;;;;;;;0.15;0.15;;;10.00;99.90;;;;;;4992464;28;20128;-61
2022/03/31 11:41:58;;;;;;;0.52;0.52;;;10.00;99.90;;;;;;4993416;28;20038;-62
2022/03/31 11:44:26;;;;;;;0.20;0.20;;;10.00;99.90;;;;;;4993132;28;20042;-62
2022/03/31 11:46:52;;;;;;;1.80;0.60;;;10.10;99.90;;;;;;4992683;28;20037;-62
2022/03/31 11:49:24;;;;;;;1.17;0.98;;;10.10;99.90;;;;;;4993078;28;20026;-61
2022/03/31 11:51:56;;;;;;;0.57;0.57;;;9.90;99.90;;;;;;5024259;28;20037;-61
2022/03/31 11:54:24;;;;;;;0.10;0.10;;;10.00;99.90;;;;;;4990611;28;20062;-61
2022/03/31 11:57:06;;;;;;;0.70;0.63;;;9.90;99.90;;;;;;5024148;28;20066;-61
2022/03/31 11:59:34;;;;;;;0.30;0.30;;;10.00;99.90;;;;;;4993531;28;20133;-60
2022/03/31 12:02:00;;;;;;;0.63;0.63;;;10.00;99.90;;;;;;4993011;28;20040;-61
2022/03/31 12:04:31;;;;;;;0.90;0.90;;;10.00;99.90;;;;;;5024416;28;20076;-60
2022/03/31 12:06:59;;;;;;;0.08;0.08;;;9.90;99.90;;;;;;5007418;28;20026;-61
2022/03/31 12:09:26;;;;;;;0.50;0.50;;;10.00;99.90;;;;;;4992976;28;20441;-60
2022/03/31 12:12:02;;;;;;;0.10;0.10;;;10.00;99.90;;;;;;5024125;28;20077;-61
2022/03/31 12:14:30;;;;;;;1.38;1.27;;;9.90;99.90;;;;;;5007543;28;20038;-61
2022/03/31 12:16:59;;;;;;;0.65;0.65;;;9.90;99.90;;;;;;4992288;28;20030;-61
2022/03/31 12:19:36;;;;;;;0.22;0.22;;;9.80;99.90;;;;;;4992778;28;20050;-61
2022/03/31 12:22:02;;;;;;;0.22;0.22;;;9.60;99.90;;;;;;4991677;28;20453;-62
2022/03/31 12:24:27;;;;;;;0.00;0.00;;;9.60;99.90;;;;;;4992530;28;20058;-62
2022/03/31 12:27:06;;;;;;;1.15;0.90;;;9.70;99.90;;;;;;4990851;28;20057;-59
2022/03/31 12:29:33;;;;;;;3.13;2.20;;;9.40;99.90;;;;;;5023841;28;20030;-61
2022/03/31 12:32:30;;;;;;;0.40;0.40;;;9.40;99.90;;;;;;4992293;28;20601;-62
2022/03/31 12:34:59;;;;;;;0.75;0.73;;;9.50;99.90;;;;;;4983981;28;20065;-61
2022/03/31 12:37:37;;;;;;;0.00;0.00;;;9.40;99.90;;;;;;5022953;28;20029;-60
2022/03/31 12:40:13;;;;;;;0.10;0.10;;;9.50;99.90;;;;;;4990561;28;20101;-60
2022/03/31 12:42:55;;;;;;;0.55;0.55;;;9.60;99.90;;;;;;4991349;28;20134;-61
2022/03/31 12:45:22;;;;;;;0.55;0.55;;;9.70;99.90;;;;;;4991347;28;20030;-60
2022/03/31 12:47:48;;;;;;;0.38;0.20;;;9.60;99.90;;;;;;4990743;28;20030;-60
2022/03/31 12:50:26;;;;;;;0.50;0.50;;;9.60;99.90;;;;;;4991828;28;20114;-61
2022/03/31 12:52:59;;;;;;;0.10;0.10;;;9.60;99.90;;;;;;4991781;28;20041;-62
2022/03/31 12:55:30;;;;;;;6.55;0.85;;;9.60;99.90;;;;;;4992166;28;20124;-62
2022/03/31 12:57:59;;;;;;;0.08;0.08;;;9.60;99.90;;;;;;5005808;23;20042;-60
2022/03/31 13:00:26;;;;;;;1.42;1.33;;;9.50;99.90;;;;;;4990684;28;20096;-60
2022/03/31 13:02:52;;;;;;;0.00;0.00;;;9.50;99.90;;;;;;4990251;28;20034;-60
2022/03/31 13:05:24;;;;;;;1.55;1.45;;;9.40;99.90;;;;;;4990552;28;20022;-59
2022/03/31 13:07:52;;;;;;;3.20;1.00;;;9.50;99.90;;;;;;5006156;28;20054;-58
2022/03/31 13:10:18;;;;;;;1.65;0.57;;;9.50;99.90;;;;;;4992095;28;20063;-60